Time;durP1;ratioP1;P1;durP2;ratioP2;P2;SDS_P1;SDS_P2;PMS_P1;PMS_P2;Temp;Humidity;BMP_temperature;BMP_pressure;BME280_temperature;BME280_humidity;BME280_pressure;Samples;Min_cycle;Max_cycle;Signal;HPM_P1;HPM_P2
2022/01/06 00:02:26;;;;;;;25.73;15.85;;;;;;;9.43;100.00;100094.56;4879948;29;20195;-72
2022/01/06 00:05:12;;;;;;;25.15;17.17;;;;;;;9.46;100.00;100098.00;4880422;29;20033;-73
2022/01/06 00:07:58;;;;;;;29.95;18.70;;;;;;;8.88;100.00;100084.47;4867049;29;20060;-72
2022/01/06 00:10:47;;;;;;;30.17;20.02;;;;;;;8.84;100.00;100102.84;4866728;29;20037;-72
2022/01/06 00:13:45;;;;;;;29.35;19.33;;;;;;;8.79;100.00;100100.31;4867458;29;20116;-73
2022/01/06 00:23:19;;;;;;;33.75;21.58;;;;;;;9.20;100.00;100087.25;4880471;29;20041;-71
2022/01/06 00:26:07;;;;;;;41.72;26.42;;;;;;;8.82;100.00;100097.66;4880183;29;20386;-71
2022/01/06 00:28:55;;;;;;;42.08;26.30;;;;;;;8.47;100.00;100094.00;4879724;29;20033;-71
2022/01/06 00:31:41;;;;;;;42.63;28.00;;;;;;;8.76;100.00;100099.53;4879858;29;20447;-72
2022/01/06 00:34:27;;;;;;;44.42;29.05;;;;;;;8.88;100.00;100100.13;4879421;29;20025;-71
2022/01/06 00:37:43;;;;;;;50.53;30.55;;;;;;;8.79;100.00;100102.06;4880009;29;20029;-72
2022/01/06 00:40:29;;;;;;;41.80;27.88;;;;;;;8.83;100.00;100114.16;4868017;29;20048;-73
2022/01/06 00:43:15;;;;;;;43.85;28.25;;;;;;;8.42;100.00;100121.94;4867854;29;20056;-72
2022/01/06 00:46:01;;;;;;;65.78;39.28;;;;;;;7.99;100.00;100120.91;4883345;29;20040;-72
2022/01/06 00:48:46;;;;;;;62.03;38.97;;;;;;;7.75;100.00;100116.09;4883370;29;20040;-72
2022/01/06 00:51:32;;;;;;;74.35;42.88;;;;;;;8.13;100.00;100118.97;4883429;29;20159;-72
2022/01/06 00:54:18;;;;;;;69.72;42.85;;;;;;;8.09;100.00;100128.59;4870100;29;20021;-72
2022/01/06 00:57:04;;;;;;;65.97;40.50;;;;;;;8.13;100.00;100124.19;4882555;29;20053;-72
2022/01/06 00:59:50;;;;;;;63.33;39.70;;;;;;;7.97;100.00;100123.59;4868934;29;20068;-73
2022/01/06 01:02:36;;;;;;;66.07;39.70;;;;;;;8.04;100.00;100121.72;4884528;29;20033;-73
2022/01/06 01:05:22;;;;;;;66.78;38.88;;;;;;;8.18;100.00;100124.94;4882445;29;20044;-73
2022/01/06 01:11:50;;;;;;;61.67;39.47;;;;;;;8.25;100.00;100122.25;4882789;29;20349;-72
2022/01/06 01:14:55;;;;;;;61.45;38.53;;;;;;;8.05;100.00;100113.00;4882954;29;20040;-73
2022/01/06 01:17:41;;;;;;;65.63;39.08;;;;;;;8.04;100.00;100114.75;4882303;29;20029;-72
2022/01/06 01:20:26;;;;;;;62.08;39.80;;;;;;;7.74;100.00;100107.44;4882510;29;20070;-73
2022/01/06 01:23:13;;;;;;;63.97;40.38;;;;;;;8.05;100.00;100110.41;4881315;29;20025;-72
2022/01/06 01:25:58;;;;;;;65.30;41.95;;;;;;;8.18;100.00;100091.03;4882417;29;20037;-73
2022/01/06 01:28:46;;;;;;;68.53;43.72;;;;;;;8.20;100.00;100091.88;4869655;29;20040;-72
2022/01/06 01:31:36;;;;;;;77.00;48.58;;;;;;;7.71;100.00;100094.44;4869005;29;20051;-73
2022/01/06 01:34:25;;;;;;;83.63;51.83;;;;;;;7.94;100.00;100094.06;4882995;29;20029;-72
2022/01/06 01:37:11;;;;;;;77.20;46.80;;;;;;;8.34;100.00;100098.59;4882832;29;20065;-73
2022/01/06 01:39:58;;;;;;;75.72;45.33;;;;;;;8.54;100.00;100098.22;4882576;29;20411;-72
2022/01/06 01:42:43;;;;;;;71.65;45.33;;;;;;;8.48;100.00;100100.97;4882176;29;20059;-74
2022/01/06 01:45:32;;;;;;;71.90;43.72;;;;;;;8.40;100.00;100108.06;4882099;29;20108;-72
2022/01/06 01:48:25;;;;;;;68.07;43.05;;;;;;;8.68;100.00;100099.66;4882271;29;20037;-72
2022/01/06 01:54:52;;;;;;;37.20;21.98;;;;;;;8.83;100.00;100093.28;4881107;29;20047;-73
2022/01/06 01:57:38;;;;;;;31.85;20.38;;;;;;;9.14;100.00;100096.97;4868559;29;20124;-72
2022/01/06 02:00:27;;;;;;;35.90;23.48;;;;;;;9.40;100.00;100097.25;4882081;29;20033;-73
2022/01/06 02:03:13;;;;;;;45.67;27.50;;;;;;;9.34;100.00;100094.78;4881981;29;20033;-73
2022/01/06 02:07:04;;;;;;;;;;;;;;;;;;;;;
2022/01/06 02:20:08;;;;;;;42.13;24.27;;;;;;;9.18;100.00;100109.97;5226793;23;20056;-71
2022/01/06 02:22:54;;;;;;;54.25;27.23;;;;;;;9.14;100.00;100117.88;4899756;29;20462;-71
2022/01/06 02:38:35;;;;;;;27.38;17.83;;;;;;;9.04;100.00;100113.72;5889827;23;20019;-71
2022/01/06 02:41:21;;;;;;;25.13;16.60;;;;;;;9.04;100.00;100116.34;4881331;29;20029;-71
2022/01/06 02:44:07;;;;;;;22.55;15.75;;;;;;;9.14;100.00;100120.50;4881365;29;20051;-72
2022/01/06 02:46:53;;;;;;;24.27;16.60;;;;;;;8.85;100.00;100123.69;4867180;29;20048;-70
2022/01/06 03:03:42;;;;;;;21.60;14.70;;;;;;;8.31;100.00;100140.41;5461230;23;20385;-72
2022/01/06 03:06:28;;;;;;;20.52;14.05;;;;;;;8.35;100.00;100130.75;4889532;29;20195;-73
2022/01/06 03:09:13;;;;;;;21.50;15.00;;;;;;;7.99;100.00;100131.34;4880655;29;20093;-73
2022/01/06 03:12:00;;;;;;;20.33;15.10;;;;;;;8.03;100.00;100114.75;4880057;29;20040;-72
2022/01/06 03:14:46;;;;;;;23.38;16.00;;;;;;;8.04;100.00;100117.34;4880758;29;20089;-72
2022/01/06 03:17:32;;;;;;;22.73;15.60;;;;;;;8.22;100.00;100109.25;4881517;29;20351;-73
2022/01/06 03:20:21;;;;;;;24.70;16.13;;;;;;;8.34;100.00;100119.47;4881177;29;20029;-72
2022/01/06 03:29:30;;;;;;;22.58;15.88;;;;;;;7.93;100.00;100124.53;5148685;23;20060;-72
2022/01/06 03:32:19;;;;;;;22.98;15.63;;;;;;;8.02;100.00;100140.00;4898470;29;20050;-72
2022/01/06 03:35:06;;;;;;;23.65;16.13;;;;;;;7.60;100.00;100139.81;4898839;29;20107;-73
2022/01/06 03:37:52;;;;;;;24.10;15.90;;;;;;;7.86;100.00;100145.47;4880357;29;20113;-72
2022/01/06 03:40:40;;;;;;;20.23;14.52;;;;;;;8.09;100.00;100135.56;4880015;29;20017;-72
2022/01/06 03:43:25;;;;;;;24.73;16.52;;;;;;;7.32;100.00;100147.13;4867225;29;20100;-72
2022/01/06 03:46:11;;;;;;;22.52;15.45;;;;;;;7.83;100.00;100140.31;4880449;29;20036;-73
2022/01/06 03:48:57;;;;;;;24.00;16.02;;;;;;;7.50;100.00;100133.88;4880511;29;20359;-73
2022/01/06 03:51:42;;;;;;;23.45;15.90;;;;;;;7.72;100.00;100140.47;4880624;29;20060;-72
2022/01/06 03:54:28;;;;;;;25.48;16.55;;;;;;;7.97;100.00;100138.34;4866701;29;20169;-73
2022/01/06 03:57:14;;;;;;;31.42;19.95;;;;;;;7.76;100.00;100146.53;4880005;29;20100;-73
2022/01/06 04:00:01;;;;;;;26.85;18.55;;;;;;;7.15;100.00;100138.69;4866190;29;20029;-72
2022/01/06 04:02:47;;;;;;;31.90;19.20;;;;;;;6.52;100.00;100138.59;4880112;29;20039;-72
2022/01/06 04:05:33;;;;;;;31.63;20.20;;;;;;;6.39;100.00;100135.25;4879062;29;20395;-72
2022/01/06 04:08:19;;;;;;;29.38;19.55;;;;;;;5.98;100.00;100146.91;4880074;29;20478;-74
2022/01/06 04:11:08;;;;;;;32.88;19.50;;;;;;;5.84;100.00;100151.34;4880314;29;20061;-72
2022/01/06 04:13:54;;;;;;;36.92;21.92;;;;;;;5.63;100.00;100161.88;4880112;29;20108;-72
2022/01/06 04:16:40;;;;;;;41.00;23.33;;;;;;;6.23;100.00;100169.22;4879724;29;20499;-72
2022/01/06 04:19:26;;;;;;;29.88;18.88;;;;;;;5.66;100.00;100169.66;4882423;29;20400;-72
2022/01/06 04:22:12;;;;;;;31.60;20.38;;;;;;;5.88;100.00;100168.66;4884618;29;20458;-72
2022/01/06 04:24:58;;;;;;;29.08;18.83;;;;;;;6.02;100.00;100179.81;4884184;29;20347;-72
2022/01/06 04:27:44;;;;;;;27.02;18.63;;;;;;;5.94;100.00;100185.06;4883372;29;20064;-72
2022/01/06 04:30:29;;;;;;;27.80;18.83;;;;;;;6.58;100.00;100191.44;4882633;29;20065;-72
2022/01/06 04:33:15;;;;;;;31.10;19.08;;;;;;;6.30;100.00;100192.56;4883228;29;20111;-72
2022/01/06 04:36:03;;;;;;;29.75;19.02;;;;;;;6.25;100.00;100190.88;4883569;29;20374;-72
2022/01/06 04:38:49;;;;;;;30.77;19.15;;;;;;;6.08;100.00;100193.63;4883188;29;20065;-72
2022/01/06 04:41:34;;;;;;;31.98;19.48;;;;;;;6.09;100.00;100194.47;4883155;29;20498;-71
2022/01/06 04:44:20;;;;;;;30.48;19.13;;;;;;;5.88;100.00;100200.72;4883517;29;20065;-71
2022/01/06 04:47:06;;;;;;;29.35;19.00;;;;;;;5.99;100.00;100205.84;4882786;29;20025;-71
2022/01/06 04:49:52;;;;;;;29.00;19.08;;;;;;;5.81;100.00;100201.63;4882794;29;20498;-71
2022/01/06 04:52:38;;;;;;;28.35;19.08;;;;;;;5.84;100.00;100213.72;4882236;29;20033;-72
2022/01/06 04:55:23;;;;;;;31.20;19.50;;;;;;;5.83;100.00;100214.63;4882378;29;20104;-71
2022/01/06 04:58:09;;;;;;;31.00;20.50;;;;;;;5.77;100.00;100222.41;4869529;29;20117;-71
2022/01/06 05:00:55;;;;;;;30.50;18.70;;;;;;;5.82;100.00;100224.13;4870083;29;20029;-71
2022/01/06 05:17:41;;;;;;;37.85;22.40;;;;;;;5.84;100.00;100221.53;4881606;29;20105;-71
2022/01/06 05:20:27;;;;;;;38.30;22.60;;;;;;;5.63;100.00;100221.63;4883510;29;20469;-71
2022/01/06 05:23:13;;;;;;;38.58;22.88;;;;;;;5.52;100.00;100215.63;4881550;29;20105;-71
2022/01/06 05:31:09;;;;;;;35.85;22.60;;;;;;;5.74;100.00;100235.44;5523225;23;20401;-72
2022/01/06 05:33:55;;;;;;;33.55;21.73;;;;;;;5.62;100.00;100232.91;4901521;29;20035;-72
2022/01/06 05:36:41;;;;;;;38.13;23.35;;;;;;;5.43;100.00;100233.84;4889605;29;20031;-72
2022/01/06 05:39:27;;;;;;;35.63;23.17;;;;;;;5.76;100.00;100241.47;4882923;29;20040;-72
2022/01/06 05:42:13;;;;;;;40.72;22.77;;;;;;;5.41;100.00;100233.84;4881253;29;20037;-72
2022/01/06 05:44:59;;;;;;;33.78;22.25;;;;;;;5.65;100.00;100246.72;4881721;29;20044;-73
2022/01/06 05:47:44;;;;;;;35.55;21.73;;;;;;;6.25;100.00;100227.28;4881912;29;20035;-73
2022/01/06 05:50:30;;;;;;;35.90;21.15;;;;;;;6.39;100.00;100241.06;4881780;29;20348;-73
2022/01/06 05:53:17;;;;;;;33.67;21.33;;;;;;;6.80;100.00;100238.94;4882278;29;20077;-72
2022/01/06 05:56:05;;;;;;;36.33;20.85;;;;;;;6.78;100.00;100228.53;4882250;29;20415;-72
2022/01/06 05:58:51;;;;;;;39.72;23.38;;;;;;;7.08;100.00;100248.19;4881869;29;20037;-72
2022/01/06 06:01:37;;;;;;;36.22;22.67;;;;;;;7.09;100.00;100244.69;4882241;29;20108;-72
2022/01/06 06:04:25;;;;;;;47.85;26.60;;;;;;;7.00;100.00;100250.00;4881697;29;20123;-72
2022/01/06 06:08:00;;;;;;;46.35;28.65;;;;;;;7.04;100.00;100249.09;4881462;29;20078;-73
2022/01/06 06:10:46;;;;;;;45.60;25.17;;;;;;;7.45;100.00;100254.69;4881314;29;20066;-72
2022/01/06 06:13:32;;;;;;;53.50;25.35;;;;;;;7.39;100.00;100253.03;4881398;29;20112;-73
2022/01/06 06:16:18;;;;;;;47.47;24.67;;;;;;;7.42;100.00;100272.97;4881057;29;20029;-72
2022/01/06 06:19:04;;;;;;;39.88;22.95;;;;;;;7.54;100.00;100268.47;4881561;29;20043;-72
2022/01/06 06:21:50;;;;;;;45.47;25.08;;;;;;;7.71;100.00;100276.94;4881363;29;20070;-73
2022/01/06 06:24:37;;;;;;;45.88;23.55;;;;;;;7.71;100.00;100273.47;4881609;29;20052;-72
2022/01/06 06:27:23;;;;;;;42.55;22.58;;;;;;;8.18;100.00;100271.06;4882247;29;20534;-73
2022/01/06 06:30:10;;;;;;;39.55;21.00;;;;;;;8.22;100.00;100272.78;4881379;29;20025;-72
2022/01/06 06:32:55;;;;;;;38.22;22.40;;;;;;;8.13;100.00;100270.28;4881302;29;20386;-72
2022/01/06 06:35:41;;;;;;;29.60;18.23;;;;;;;8.47;100.00;100281.94;4880617;29;20503;-72
2022/01/06 06:38:27;;;;;;;31.67;18.27;;;;;;;8.43;100.00;100272.44;4881277;29;20316;-73
2022/01/06 06:41:13;;;;;;;37.05;19.67;;;;;;;8.74;100.00;100286.72;4880151;29;20032;-73
2022/01/06 06:44:02;;;;;;;30.73;18.67;;;;;;;8.88;100.00;100282.13;4880910;29;20085;-73
2022/01/06 06:46:48;;;;;;;28.85;19.38;;;;;;;8.91;100.00;100301.22;4868053;29;20105;-72
2022/01/06 06:49:34;;;;;;;29.77;18.27;;;;;;;8.53;100.00;100302.75;4881456;29;20021;-73
2022/01/06 06:52:20;;;;;;;30.08;19.42;;;;;;;8.64;100.00;100308.66;4881396;29;20148;-73
2022/01/06 06:55:06;;;;;;;29.33;20.27;;;;;;;8.61;100.00;100306.94;4881092;29;20025;-72
2022/01/06 06:57:52;;;;;;;30.10;20.02;;;;;;;8.83;100.00;100297.00;4881246;29;20133;-73
2022/01/06 07:00:37;;;;;;;31.83;20.42;;;;;;;8.99;100.00;100298.47;4881031;29;20029;-72
2022/01/06 07:03:23;;;;;;;30.35;19.88;;;;;;;9.33;100.00;100296.97;4881017;29;20450;-72
2022/01/06 07:06:09;;;;;;;28.48;19.73;;;;;;;9.34;100.00;100285.63;4880237;29;20097;-73
2022/01/06 07:08:55;;;;;;;29.00;20.02;;;;;;;9.33;100.00;100296.97;4880946;29;20057;-73
2022/01/06 07:20:38;;;;;;;32.22;19.73;;;;;;;9.11;100.00;100337.44;5364766;23;20128;-72
2022/01/06 07:23:24;;;;;;;35.33;20.90;;;;;;;9.30;100.00;100328.38;4898116;29;20025;-71
2022/01/06 07:26:10;;;;;;;30.40;20.67;;;;;;;9.61;100.00;100319.06;4877270;29;20044;-71
2022/01/06 07:28:55;;;;;;;32.67;18.60;;;;;;;9.89;100.00;100325.47;4880258;29;20371;-71
2022/01/06 07:31:41;;;;;;;26.80;16.98;;;;;;;10.22;100.00;100324.75;4880450;29;20025;-71
2022/01/06 07:34:27;;;;;;;26.42;17.67;;;;;;;10.12;100.00;100325.84;4867777;29;20029;-72
2022/01/06 07:37:13;;;;;;;28.38;17.25;;;;;;;9.81;100.00;100333.44;4880107;29;20347;-71
2022/01/06 07:39:59;;;;;;;23.48;14.80;;;;;;;10.53;100.00;100322.31;4880104;29;20081;-72
2022/01/06 07:42:45;;;;;;;27.75;15.63;;;;;;;10.97;100.00;100320.31;4880043;29;20112;-71
2022/01/06 07:45:31;;;;;;;25.13;16.20;;;;;;;10.70;100.00;100344.59;4880778;29;20037;-70
2022/01/06 07:51:58;;;;;;;29.35;16.65;;;;;;;11.29;100.00;100335.22;4880528;29;20033;-72
2022/01/06 08:05:27;;;;;;;31.92;17.67;;;;;;;11.61;100.00;100351.84;5323956;23;20060;-72
2022/01/06 08:08:12;;;;;;;28.80;16.17;;;;;;;12.04;100.00;100352.34;4883919;29;20060;-71
2022/01/06 08:10:58;;;;;;;26.38;16.08;;;;;;;11.91;100.00;100355.38;4883312;29;20029;-72
2022/01/06 08:13:44;;;;;;;27.08;16.35;;;;;;;12.17;100.00;100364.22;4883484;29;20427;-72
2022/01/06 08:16:30;;;;;;;28.80;17.83;;;;;;;11.87;100.00;100354.63;4883918;29;20119;-72
2022/01/06 08:19:16;;;;;;;28.30;18.27;;;;;;;12.19;100.00;100367.66;4883556;29;20028;-71
2022/01/06 08:22:02;;;;;;;28.35;19.88;;;;;;;12.84;100.00;100355.97;4884067;29;20450;-71
2022/01/06 08:35:26;;;;;;;33.83;19.35;;;;;;;13.50;100.00;100353.72;5149182;23;20060;-71
2022/01/06 08:38:12;;;;;;;32.45;19.50;;;;;;;13.36;100.00;100363.88;4883837;29;20129;-70
2022/01/06 08:40:58;;;;;;;29.88;19.23;;;;;;;12.60;100.00;100375.16;4883347;29;20484;-71
2022/01/06 08:43:44;;;;;;;27.27;17.73;;;;;;;12.35;100.00;100358.44;4869810;29;20116;-71
2022/01/06 08:46:29;;;;;;;28.48;17.85;;;;;;;12.57;100.00;100363.84;4882886;29;20037;-71
2022/01/06 08:49:15;;;;;;;25.63;16.48;;;;;;;13.78;100.00;100351.84;4883346;29;20033;-71
2022/01/06 08:52:03;;;;;;;28.15;18.35;;;;;;;14.35;100.00;100354.97;4883140;29;20037;-71
2022/01/06 08:55:06;;;;;;;30.90;18.83;;;;;;;13.97;100.00;100345.00;4882805;29;20051;-71
2022/01/06 08:57:53;;;;;;;28.27;16.95;;;;;;;14.32;100.00;100346.31;4869684;29;20049;-71
2022/01/06 09:00:39;;;;;;;27.05;17.63;;;;;;;14.27;100.00;100335.94;4882486;29;20040;-71
2022/01/06 09:03:25;;;;;;;29.35;17.33;;;;;;;14.61;100.00;100344.28;4883676;29;20139;-71
2022/01/06 09:06:11;;;;;;;25.67;16.77;;;;;;;14.13;100.00;100343.50;4881459;29;20112;-70
2022/01/06 09:08:56;;;;;;;26.90;17.27;;;;;;;14.65;100.00;100337.09;4883533;29;20407;-71
2022/01/06 09:11:43;;;;;;;25.55;16.67;;;;;;;15.59;100.00;100326.91;4882417;29;20029;-71
2022/01/06 09:14:28;;;;;;;28.60;19.20;;;;;;;15.57;100.00;100330.56;4882850;29;20457;-71
2022/01/06 09:17:17;;;;;;;32.33;19.98;;;;;;;16.26;100.00;100320.31;4882166;29;20366;-71
2022/01/06 09:20:05;;;;;;;46.85;20.90;;;;;;;16.76;100.00;100317.94;4882282;29;20021;-71
2022/01/06 09:22:51;;;;;;;40.28;20.42;;;;;;;16.60;100.00;100314.31;4882282;29;20028;-71
2022/01/06 09:25:37;;;;;;;32.75;19.50;;;;;;;16.86;99.69;100305.94;4882797;29;20125;-71
2022/01/06 09:28:22;;;;;;;31.02;19.85;;;;;;;16.40;100.00;100298.50;4882243;29;20033;-71
2022/01/06 09:31:08;;;;;;;35.95;17.98;;;;;;;16.75;100.00;100303.81;4882654;29;20033;-72
2022/01/06 09:33:54;;;;;;;23.00;14.73;;;;;;;16.36;100.00;100297.78;4882357;29;20037;-71
2022/01/06 09:36:44;;;;;;;22.63;14.27;;;;;;;16.52;100.00;100303.25;4881191;29;20473;-71
2022/01/06 09:45:49;;;;;;;23.27;14.35;;;;;;;16.04;100.00;100297.59;5322094;23;20490;-71
2022/01/06 09:48:38;;;;;;;19.95;12.70;;;;;;;15.94;100.00;100307.72;4881737;29;20447;-71
2022/01/06 09:51:24;;;;;;;15.70;11.27;;;;;;;15.57;100.00;100306.78;4881740;29;20448;-72
2022/01/06 09:54:10;;;;;;;17.70;11.32;;;;;;;15.88;100.00;100299.22;4882248;29;20029;-72
2022/01/06 09:56:55;;;;;;;22.98;11.45;;;;;;;15.60;100.00;100283.78;4881687;29;20036;-71
2022/01/06 09:59:44;;;;;;;17.80;9.73;;;;;;;16.14;100.00;100291.81;4882506;29;20029;-72
2022/01/06 10:02:34;;;;;;;19.60;9.43;;;;;;;15.96;100.00;100289.16;4882052;29;20061;-72
2022/01/06 10:05:20;;;;;;;18.08;9.85;;;;;;;16.30;100.00;100278.72;4882406;29;20426;-72
2022/01/06 10:08:06;;;;;;;15.57;9.57;;;;;;;16.50;100.00;100291.88;4882419;29;20033;-71
2022/01/06 10:11:06;;;;;;;22.13;12.00;;;;;;;16.35;100.00;100285.50;4882226;29;20052;-72
2022/01/06 10:14:03;;;;;;;19.70;11.00;;;;;;;16.29;100.00;100287.56;4881575;29;20025;-72
2022/01/06 10:16:50;;;;;;;21.00;12.23;;;;;;;16.65;100.00;100283.19;4881134;29;20351;-71
2022/01/06 10:19:40;;;;;;;18.45;12.43;;;;;;;16.72;100.00;100280.16;4882396;29;20033;-72
2022/01/06 10:22:26;;;;;;;20.52;10.65;;;;;;;16.54;100.00;100282.84;4881673;29;20365;-71
2022/01/06 10:30:15;;;;;;;12.43;7.85;;;;;;;16.75;100.00;100287.09;5169338;23;20048;-72
2022/01/06 10:33:01;;;;;;;16.08;10.38;;;;;;;16.68;100.00;100293.63;4899740;29;20347;-70
2022/01/06 10:35:48;;;;;;;13.30;8.77;;;;;;;16.94;100.00;100295.84;4894896;29;20056;-72
2022/01/06 10:38:35;;;;;;;23.17;10.32;;;;;;;17.01;100.00;100289.31;4881700;29;20372;-71
2022/01/06 10:41:21;;;;;;;19.85;10.70;;;;;;;17.32;100.00;100287.66;4881016;29;20044;-71
2022/01/06 10:44:10;;;;;;;17.75;10.02;;;;;;;17.27;100.00;100283.53;4881697;29;20042;-71
2022/01/06 10:46:57;;;;;;;16.13;8.05;;;;;;;17.16;100.00;100289.38;4880650;29;20036;-72
2022/01/06 10:49:43;;;;;;;12.88;8.15;;;;;;;17.32;97.96;100292.94;4880568;29;20349;-71
2022/01/06 10:52:28;;;;;;;14.57;8.23;;;;;;;17.29;98.77;100295.78;4879979;29;20040;-72
2022/01/06 10:55:39;;;;;;;15.55;8.40;;;;;;;17.46;97.76;100302.88;4880502;29;20033;-71
2022/01/06 10:58:26;;;;;;;20.52;10.15;;;;;;;17.53;97.67;100304.28;4879952;29;20033;-72
2022/01/06 11:01:16;;;;;;;16.08;9.88;;;;;;;17.59;98.14;100317.19;4880759;29;20041;-72
2022/01/06 11:04:04;;;;;;;19.75;12.18;;;;;;;17.29;100.00;100305.50;4880971;29;20372;-72
2022/01/06 11:06:50;;;;;;;14.07;9.63;;;;;;;17.03;100.00;100309.47;4879700;29;20036;-70
2022/01/06 11:13:24;;;;;;;16.38;8.80;;;;;;;17.27;100.00;100305.59;4880165;29;20094;-71
2022/01/06 11:24:14;;;;;;;16.60;9.65;;;;;;;18.03;96.51;100302.41;5751391;23;20067;-74
2022/01/06 11:27:02;;;;;;;14.93;9.23;;;;;;;18.04;95.96;100298.81;4884619;29;20037;-74
2022/01/06 11:29:48;;;;;;;23.48;9.82;;;;;;;18.30;92.37;100298.25;4867336;29;20056;-72
2022/01/06 11:32:34;;;;;;;16.10;8.80;;;;;;;17.98;88.19;100302.69;4881462;29;20059;-73
2022/01/06 11:35:20;;;;;;;11.43;7.50;;;;;;;17.97;87.00;100303.59;4880767;29;20057;-73
2022/01/06 11:38:05;;;;;;;11.27;7.35;;;;;;;18.09;84.52;100310.06;4881099;29;20080;-73
2022/01/06 11:41:12;;;;;;;8.70;6.47;;;;;;;18.03;84.53;100311.25;4881272;29;20117;-73
2022/01/06 11:43:58;;;;;;;10.07;6.57;;;;;;;17.98;84.04;100315.06;4881561;29;20036;-73
2022/01/06 11:46:46;;;;;;;8.00;5.82;;;;;;;18.04;81.94;100312.06;4880243;29;20434;-73
2022/01/06 11:49:42;;;;;;;11.20;6.78;;;;;;;18.09;81.92;100304.75;4867908;29;20048;-74
2022/01/06 11:52:28;;;;;;;12.75;6.50;;;;;;;17.82;77.98;100314.19;4880695;29;20060;-73
2022/01/06 11:55:16;;;;;;;8.95;6.25;;;;;;;17.91;78.09;100309.25;4881182;29;20422;-73
2022/01/06 11:58:17;;;;;;;10.40;6.50;;;;;;;17.66;82.16;100315.94;4881117;29;20043;-72
2022/01/06 12:01:07;;;;;;;12.27;6.22;;;;;;;17.64;83.07;100308.06;4879742;29;20025;-73
2022/01/06 12:03:53;;;;;;;12.25;7.10;;;;;;;17.39;88.93;100315.53;4880369;29;20048;-73
2022/01/06 12:09:16;;;;;;;12.38;7.20;;;;;;;17.42;91.88;100311.91;5906238;23;20111;-72
2022/01/06 12:18:27;;;;;;;10.20;7.75;;;;;;;16.97;97.56;100323.03;5732923;23;20060;-71
2022/01/06 12:21:13;;;;;;;23.05;11.15;;;;;;;17.47;94.58;100317.81;4898963;29;20537;-72
2022/01/06 12:24:04;;;;;;;18.73;10.18;;;;;;;17.43;92.89;100309.19;4898770;29;20059;-72
2022/01/06 12:26:50;;;;;;;13.25;8.57;;;;;;;17.03;93.66;100319.19;4885547;29;20033;-72
2022/01/06 12:29:39;;;;;;;12.82;7.93;;;;;;;17.02;92.87;100328.94;4879974;29;20045;-72
2022/01/06 12:32:25;;;;;;;12.52;7.65;;;;;;;16.96;93.70;100333.69;4880070;29;20427;-71
2022/01/06 12:42:50;;;;;;;14.93;8.73;;;;;;;16.93;98.17;100339.97;4917329;23;20068;-71
2022/01/06 12:45:36;;;;;;;12.57;8.23;;;;;;;16.88;100.00;100349.09;4899371;29;20032;-71
2022/01/06 12:48:30;;;;;;;12.52;8.38;;;;;;;16.73;100.00;100355.09;4882830;29;20041;-71
2022/01/06 12:51:28;;;;;;;15.27;8.70;;;;;;;16.60;100.00;100360.09;4883344;29;20068;-72
2022/01/06 12:54:17;;;;;;;11.88;7.65;;;;;;;16.86;100.00;100364.16;4883240;29;20067;-72
2022/01/06 12:57:06;;;;;;;14.27;8.30;;;;;;;16.38;100.00;100363.81;4883222;29;20068;-72
2022/01/06 12:59:55;;;;;;;14.60;8.10;;;;;;;16.28;100.00;100370.47;4883122;29;20395;-72
2022/01/06 13:02:41;;;;;;;15.48;9.30;;;;;;;16.23;100.00;100364.53;4882184;29;20455;-71
2022/01/06 13:05:27;;;;;;;12.25;8.77;;;;;;;16.48;100.00;100371.28;4883539;29;20052;-72
2022/01/06 13:08:14;;;;;;;18.73;8.27;;;;;;;16.41;100.00;100379.56;4883608;29;20470;-71
2022/01/06 13:11:07;;;;;;;12.65;8.65;;;;;;;16.16;100.00;100379.78;4869787;29;20045;-72
2022/01/06 13:13:59;;;;;;;15.52;9.20;;;;;;;16.22;100.00;100379.53;4882979;29;20108;-71
2022/01/06 13:16:44;;;;;;;16.58;9.77;;;;;;;16.27;100.00;100381.97;4882622;29;20033;-72
2022/01/06 13:20:04;;;;;;;22.85;10.32;;;;;;;16.46;100.00;100380.22;4883300;29;20343;-73
2022/01/06 13:25:42;;;;;;;19.10;10.82;;;;;;;16.24;100.00;100380.31;4883066;29;20411;-72
2022/01/06 13:28:27;;;;;;;23.85;12.25;;;;;;;16.10;100.00;100379.22;4882513;29;20040;-72
2022/01/06 13:31:17;;;;;;;19.52;11.20;;;;;;;16.13;100.00;100373.81;4870163;29;20113;-71
2022/01/06 13:34:03;;;;;;;16.40;10.32;;;;;;;16.22;100.00;100384.81;4870391;29;20464;-72
2022/01/06 13:37:00;;;;;;;17.40;11.88;;;;;;;16.13;100.00;100385.25;4881923;29;20115;-72
2022/01/06 13:39:52;;;;;;;23.05;13.20;;;;;;;16.21;100.00;100387.53;4882076;29;20101;-72
2022/01/06 13:42:42;;;;;;;23.60;12.65;;;;;;;16.10;100.00;100389.78;4882284;29;20065;-73
2022/01/06 13:53:51;;;;;;;22.23;12.15;;;;;;;15.41;100.00;100403.44;4882209;29;20368;-72
2022/01/06 13:56:37;;;;;;;20.08;12.85;;;;;;;15.77;100.00;100402.72;4881495;29;20061;-72
2022/01/06 13:59:23;;;;;;;21.08;12.48;;;;;;;15.76;100.00;100411.59;4881042;29;20100;-72
2022/01/06 14:02:11;;;;;;;24.05;13.07;;;;;;;15.67;100.00;100421.69;4881943;29;20025;-73
2022/01/06 14:04:58;;;;;;;21.52;13.60;;;;;;;15.83;100.00;100423.56;4868393;29;20458;-72
2022/01/06 14:07:43;;;;;;;27.17;13.52;;;;;;;15.70;100.00;100426.81;4881332;29;20036;-71
2022/01/06 14:10:29;;;;;;;28.83;13.60;;;;;;;15.47;100.00;100435.69;4880938;29;20037;-72
2022/01/06 14:13:15;;;;;;;23.25;13.88;;;;;;;15.73;100.00;100442.53;4868201;29;20446;-72
2022/01/06 14:16:01;;;;;;;22.60;13.60;;;;;;;15.37;100.00;100452.00;4881242;29;20033;-72
2022/01/06 14:18:46;;;;;;;22.65;12.82;;;;;;;15.51;100.00;100458.41;4881224;29;20043;-72
2022/01/06 14:21:32;;;;;;;18.40;12.40;;;;;;;15.27;100.00;100458.56;4882018;29;20025;-72
2022/01/06 14:24:18;;;;;;;21.70;11.48;;;;;;;15.25;100.00;100468.28;4881061;29;20068;-72
2022/01/06 14:27:04;;;;;;;18.63;11.70;;;;;;;15.24;100.00;100474.50;4880517;29;20029;-71
2022/01/06 14:29:50;;;;;;;20.17;11.45;;;;;;;15.11;100.00;100479.41;4880464;29;20060;-72
2022/01/06 14:38:52;;;;;;;23.02;12.98;;;;;;;14.86;100.00;100497.09;5617522;23;20052;-73
2022/01/06 14:41:38;;;;;;;20.40;12.40;;;;;;;14.88;100.00;100504.03;4898803;29;20107;-70
2022/01/06 14:44:24;;;;;;;19.85;13.45;;;;;;;14.82;100.00;100512.19;4898466;29;20095;-71
2022/01/06 14:47:10;;;;;;;22.48;13.40;;;;;;;14.82;100.00;100517.47;4883974;29;20381;-72
2022/01/06 14:49:56;;;;;;;18.23;12.63;;;;;;;14.70;100.00;100514.44;4880621;29;20067;-72
2022/01/06 14:52:44;;;;;;;29.92;12.30;;;;;;;14.62;100.00;100524.41;4881071;29;20032;-71
2022/01/06 14:55:30;;;;;;;20.98;12.38;;;;;;;14.25;100.00;100532.78;4880686;29;20044;-72
2022/01/06 14:58:16;;;;;;;20.77;12.68;;;;;;;14.07;100.00;100536.03;4880818;29;20458;-71
2022/01/06 15:01:05;;;;;;;24.35;15.35;;;;;;;14.27;100.00;100538.84;4880984;29;20138;-71
2022/01/06 15:03:53;;;;;;;25.73;15.73;;;;;;;14.17;100.00;100541.84;4880377;29;20107;-72
2022/01/06 15:06:39;;;;;;;35.05;16.42;;;;;;;13.92;100.00;100552.38;4881265;29;20384;-72
2022/01/06 15:09:24;;;;;;;34.38;18.77;;;;;;;13.75;100.00;100554.69;4880321;29;20096;-71
2022/01/06 15:12:10;;;;;;;32.58;20.27;;;;;;;13.92;100.00;100555.00;4880623;29;20071;-71
2022/01/06 15:14:56;;;;;;;31.80;17.98;;;;;;;13.76;100.00;100560.81;4879598;29;20075;-72
2022/01/06 15:17:45;;;;;;;28.50;16.83;;;;;;;13.80;100.00;100558.03;4880211;29;20075;-72
2022/01/06 15:20:32;;;;;;;32.78;18.73;;;;;;;14.01;100.00;100570.50;4882031;29;20350;-71
2022/01/06 15:23:18;;;;;;;29.33;18.75;;;;;;;13.74;100.00;100571.41;4880521;29;20028;-72
2022/01/06 15:26:04;;;;;;;33.63;19.80;;;;;;;13.43;100.00;100572.44;4868040;29;20043;-71
2022/01/06 15:28:50;;;;;;;33.85;20.77;;;;;;;13.12;100.00;100571.63;4881067;29;20044;-72
2022/01/06 15:31:37;;;;;;;38.28;22.50;;;;;;;12.97;100.00;100572.97;4879962;29;20386;-72